Alamosa, Colorado
Current Conditions -  °F | °C
As of 10:52 AM on Thursday 27 Nov 2014 (Local Time) from KALS Reporting Station
Clear Clear  
Wind Chill: 43°   Ceiling: Unl
Heat Index: 43°   Visibility: 10mi
Dew Point: 20°   Wind: 3mph
Humidity: 40%   Direction: 310°NW
Pressure: 30.49"   Gusts: NA
Location:  37.47°N, 105.87°W
Report Text: KALS 271752Z AUTO 31003KT 10SM CLR 06/M07 A3049 RMK AO2 SLP342 T00611067 10061 21139 58005
Loading
Personal Weather Stations






























Interactive Weather Map New forecast layout! Learn more

10-Day Weather Forecast

Advertisements
Track Severe Weather on mobile